createdAt,value
2023-02-04T00:00:18.955Z,26.41
2023-02-04T00:01:18.924Z,26.41
2023-02-04T00:02:18.971Z,26.44
2023-02-04T00:03:18.880Z,26.44
2023-02-04T00:04:18.896Z,26.43
2023-02-04T00:05:18.887Z,26.42
2023-02-04T00:06:18.884Z,26.43
2023-02-04T00:07:18.862Z,26.44
2023-02-04T00:08:18.865Z,26.44
2023-02-04T00:09:18.820Z,26.44
2023-02-04T00:10:18.809Z,26.46
2023-02-04T00:11:18.820Z,26.44
2023-02-04T00:12:18.784Z,26.45
2023-02-04T00:13:18.744Z,26.47
2023-02-04T00:14:18.731Z,26.46
2023-02-04T00:15:18.699Z,26.48
2023-02-04T00:16:18.831Z,26.48
2023-02-04T00:17:19.234Z,26.46
2023-02-04T00:18:19.333Z,26.48
2023-02-04T00:19:18.731Z,26.46
2023-02-04T00:20:19.193Z,26.52
2023-02-04T00:21:18.755Z,26.49
2023-02-04T00:22:18.651Z,26.49
2023-02-04T00:23:18.615Z,26.49
2023-02-04T00:24:18.762Z,26.45
2023-02-04T00:25:18.672Z,26.46
2023-02-04T00:26:18.766Z,26.46
2023-02-04T00:27:19.217Z,26.47
2023-02-04T00:28:18.594Z,26.47
2023-02-04T00:29:18.501Z,26.46
2023-02-04T00:30:18.653Z,26.49
2023-02-04T00:31:18.582Z,26.46
2023-02-04T00:32:18.548Z,26.51
2023-02-04T00:33:18.402Z,26.55
2023-02-04T00:34:18.434Z,26.51
2023-02-04T00:35:18.437Z,26.52
2023-02-04T00:36:18.366Z,26.53
2023-02-04T00:37:18.341Z,26.54
2023-02-04T00:38:18.343Z,26.53
2023-02-04T00:39:18.328Z,26.54
2023-02-04T00:40:18.291Z,26.53
2023-02-04T00:41:18.288Z,26.51
2023-02-04T00:42:18.304Z,26.53
2023-02-04T00:43:18.257Z,26.55
2023-02-04T00:44:19.233Z,26.54
2023-02-04T00:45:18.228Z,26.56
2023-02-04T00:46:18.195Z,26.56
2023-02-04T00:47:18.197Z,26.55
2023-02-04T00:48:18.190Z,26.54
2023-02-04T00:49:18.155Z,26.57
2023-02-04T00:50:18.153Z,26.59
2023-02-04T00:51:18.119Z,26.59
2023-02-04T00:52:18.118Z,26.58
2023-02-04T00:53:18.127Z,26.57
2023-02-04T00:54:18.076Z,26.54
2023-02-04T00:55:18.045Z,26.56
2023-02-04T00:56:18.040Z,26.56
2023-02-04T00:57:18.049Z,26.57
2023-02-04T00:58:17.996Z,26.52
2023-02-04T00:59:18.012Z,26.57
2023-02-04T01:00:17.969Z,26.58
2023-02-04T01:01:18.019Z,26.60
2023-02-04T01:02:18.613Z,26.59
2023-02-04T01:03:17.922Z,26.62
2023-02-04T01:04:17.919Z,26.60
2023-02-04T01:05:17.927Z,26.60
2023-02-04T01:06:17.908Z,26.61
2023-02-04T01:07:17.946Z,26.62
2023-02-04T01:08:17.864Z,26.65
2023-02-04T01:09:17.866Z,26.68
2023-02-04T01:12:17.852Z,26.64
2023-02-04T01:18:17.842Z,26.66
2023-02-04T01:28:17.711Z,26.69
2023-02-04T01:29:17.694Z,26.69
2023-02-04T01:30:17.651Z,26.69
2023-02-04T01:31:17.810Z,26.72
2023-02-04T01:32:17.619Z,26.71
2023-02-04T01:33:17.557Z,26.71
2023-02-04T01:34:17.574Z,26.70
2023-02-04T01:35:17.538Z,26.67
2023-02-04T01:36:17.530Z,26.68
2023-02-04T01:37:17.495Z,26.68
2023-02-04T01:38:17.489Z,26.70
2023-02-04T01:39:17.438Z,26.68
2023-02-04T01:40:17.422Z,26.66
2023-02-04T01:41:17.415Z,26.66
2023-02-04T01:42:17.417Z,26.67
2023-02-04T01:43:17.378Z,26.70
2023-02-04T01:44:17.390Z,26.67
2023-02-04T01:45:17.330Z,26.69
2023-02-04T01:46:17.408Z,26.69
2023-02-04T01:47:17.345Z,26.69
2023-02-04T01:48:17.319Z,26.71
2023-02-04T01:49:17.367Z,26.73
2023-02-04T01:50:17.267Z,26.73
2023-02-04T01:51:17.313Z,26.72
2023-02-04T01:52:17.225Z,26.73
2023-02-04T01:53:17.226Z,26.73
2023-02-04T01:54:17.194Z,26.71
2023-02-04T01:55:17.198Z,26.71
2023-02-04T01:56:17.234Z,26.70
2023-02-04T01:57:17.145Z,26.72
2023-02-04T01:58:17.169Z,26.72
2023-02-04T01:59:17.159Z,26.71
2023-02-04T02:00:17.134Z,26.70
2023-02-04T02:01:17.155Z,26.71
2023-02-04T02:02:17.132Z,26.73
2023-02-04T02:03:17.082Z,26.73
2023-02-04T02:04:17.052Z,26.73
2023-02-04T02:05:17.069Z,26.72
2023-02-04T02:06:16.997Z,26.71
2023-02-04T02:07:17.003Z,26.73
2023-02-04T02:08:16.971Z,26.74
2023-02-04T02:09:16.974Z,26.73
2023-02-04T02:10:16.982Z,26.74
2023-02-04T02:11:16.951Z,26.71
2023-02-04T02:12:16.952Z,26.73
2023-02-04T02:13:16.908Z,26.72
2023-02-04T02:14:16.903Z,26.72
2023-02-04T02:15:16.878Z,26.72
2023-02-04T02:16:16.911Z,26.72
2023-02-04T02:17:16.864Z,26.74
2023-02-04T02:18:16.869Z,26.72
2023-02-04T02:19:16.836Z,26.74
2023-02-04T02:20:16.840Z,26.73
2023-02-04T02:21:16.790Z,26.73
2023-02-04T02:22:16.767Z,26.72
2023-02-04T02:23:16.770Z,26.71
2023-02-04T02:24:16.761Z,26.72
2023-02-04T02:25:16.722Z,26.70
2023-02-04T02:26:16.718Z,26.71
2023-02-04T02:27:16.714Z,26.73
2023-02-04T02:28:16.741Z,26.71
2023-02-04T02:29:16.730Z,26.72
2023-02-04T02:30:16.652Z,26.70
2023-02-04T02:31:16.712Z,26.72
2023-02-04T02:32:16.645Z,26.71
2023-02-04T02:33:16.616Z,26.73
2023-02-04T02:34:16.630Z,26.71
2023-02-04T02:35:16.624Z,26.73
2023-02-04T02:36:16.580Z,26.73
2023-02-04T02:37:16.583Z,26.74
2023-02-04T02:38:16.541Z,26.74
2023-02-04T02:39:16.561Z,26.74
2023-02-04T02:40:16.557Z,26.78
2023-02-04T02:41:16.516Z,26.76
2023-02-04T02:42:16.502Z,26.76
2023-02-04T02:43:16.516Z,26.78
2023-02-04T02:44:16.518Z,26.78
2023-02-04T02:45:16.484Z,26.77
2023-02-04T02:46:16.511Z,26.74
2023-02-04T02:47:16.493Z,26.77
2023-02-04T02:48:16.438Z,26.76
2023-02-04T02:49:16.465Z,26.75
2023-02-04T02:50:16.414Z,26.77
2023-02-04T02:51:16.413Z,26.77
2023-02-04T02:52:16.370Z,26.75
2023-02-04T02:53:16.386Z,26.77
2023-02-04T02:54:16.365Z,26.74
2023-02-04T02:55:16.354Z,26.73
2023-02-04T02:56:16.346Z,26.71
2023-02-04T02:57:16.356Z,26.73
2023-02-04T02:58:16.301Z,26.74
2023-02-04T02:59:16.309Z,26.73
2023-02-04T03:00:16.304Z,26.70
2023-02-04T03:01:16.287Z,26.75
2023-02-04T03:02:16.357Z,26.72
2023-02-04T03:03:16.295Z,26.75
2023-02-04T03:04:16.290Z,26.76
2023-02-04T03:05:16.239Z,26.77
2023-02-04T03:06:16.209Z,26.74
2023-02-04T03:07:16.245Z,26.76
2023-02-04T03:08:16.215Z,26.76
2023-02-04T03:09:16.220Z,26.77
2023-02-04T03:10:16.193Z,26.79
2023-02-04T03:11:16.169Z,26.78
2023-02-04T03:12:16.181Z,26.75
2023-02-04T03:13:16.146Z,26.76
2023-02-04T03:14:16.201Z,26.78
2023-02-04T03:15:16.151Z,26.76
2023-02-04T03:16:16.158Z,26.77
2023-02-04T03:17:16.110Z,26.78
2023-02-04T03:18:16.081Z,26.76
2023-02-04T03:19:16.096Z,26.77
2023-02-04T03:20:16.092Z,26.75
2023-02-04T03:21:16.099Z,26.79
2023-02-04T03:22:16.052Z,26.78
2023-02-04T03:23:16.045Z,26.79
2023-02-04T03:24:16.030Z,26.77
2023-02-04T03:25:16.018Z,26.78
2023-02-04T03:26:16.031Z,26.77
2023-02-04T03:27:16.035Z,26.76
2023-02-04T03:28:16.053Z,26.78
2023-02-04T03:29:15.981Z,26.77
2023-02-04T03:30:15.964Z,26.77
2023-02-04T03:31:16.044Z,26.78
2023-02-04T03:32:15.919Z,26.77
2023-02-04T03:33:15.905Z,26.78
2023-02-04T03:34:15.884Z,26.77
2023-02-04T03:35:15.883Z,26.79
2023-02-04T03:36:15.905Z,26.77
2023-02-04T03:37:15.889Z,26.77
2023-02-04T03:38:15.846Z,26.76
2023-02-04T03:39:15.852Z,26.76
2023-02-04T03:40:15.826Z,26.75
2023-02-04T03:41:15.849Z,26.77
2023-02-04T03:42:15.819Z,26.77
2023-02-04T03:43:15.829Z,26.76
2023-02-04T03:44:15.830Z,26.77
2023-02-04T03:45:15.784Z,26.76
2023-02-04T03:46:15.827Z,26.77
2023-02-04T03:47:15.754Z,26.77
2023-02-04T03:48:15.758Z,26.78
2023-02-04T03:49:15.761Z,26.78
2023-02-04T03:50:15.770Z,26.75
2023-02-04T03:51:15.732Z,26.76
2023-02-04T03:52:15.744Z,26.76
2023-02-04T03:53:15.733Z,26.77
2023-02-04T03:54:15.722Z,26.76
2023-02-04T03:55:15.707Z,26.74
2023-02-04T03:56:15.698Z,26.75
2023-02-04T03:57:15.708Z,26.75
2023-02-04T03:58:15.666Z,26.74
2023-02-04T03:59:15.670Z,26.75
2023-02-04T04:00:15.672Z,26.74
2023-02-04T04:01:15.660Z,26.72
2023-02-04T04:02:15.639Z,26.73
2023-02-04T04:03:15.651Z,26.73
2023-02-04T04:04:15.610Z,26.74
2023-02-04T04:05:15.599Z,26.73
2023-02-04T04:06:15.621Z,26.73
2023-02-04T04:07:15.580Z,26.73
2023-02-04T04:08:15.585Z,26.71
2023-02-04T04:09:15.552Z,26.73
2023-02-04T04:10:15.538Z,26.71
2023-02-04T04:11:15.516Z,26.74
2023-02-04T04:12:15.513Z,26.74
2023-02-04T04:13:15.511Z,26.74
2023-02-04T04:14:15.512Z,26.73
2023-02-04T04:15:15.465Z,26.71
2023-02-04T04:16:15.512Z,26.72
2023-02-04T04:17:15.444Z,26.73
2023-02-04T04:18:15.437Z,26.73
2023-02-04T04:19:15.447Z,26.74
2023-02-04T04:20:15.417Z,26.73
2023-02-04T04:21:15.418Z,26.74
2023-02-04T04:22:15.392Z,26.76
2023-02-04T04:23:15.365Z,26.74
2023-02-04T04:24:15.369Z,26.74
2023-02-04T04:25:15.389Z,26.75
2023-02-04T04:26:15.416Z,26.72
2023-02-04T04:27:15.292Z,26.70
2023-02-04T04:28:15.371Z,26.72
2023-02-04T04:29:15.256Z,26.72
2023-02-04T04:30:15.313Z,26.73
2023-02-04T04:31:15.294Z,26.72
2023-02-04T04:32:15.218Z,26.71
2023-02-04T04:33:15.219Z,26.70
2023-02-04T04:34:15.256Z,26.72
2023-02-04T04:35:15.185Z,26.72
2023-02-04T04:36:15.197Z,26.73
2023-02-04T04:37:15.175Z,26.73
2023-02-04T04:38:15.175Z,26.73
2023-02-04T04:39:15.103Z,26.72
2023-02-04T04:40:15.103Z,26.72
2023-02-04T04:41:15.113Z,26.73
2023-02-04T04:42:15.081Z,26.73
2023-02-04T04:43:15.065Z,26.74
2023-02-04T04:44:15.080Z,26.72
2023-02-04T04:45:15.030Z,26.72
2023-02-04T04:46:15.059Z,26.74
2023-02-04T04:47:14.994Z,26.74
2023-02-04T04:48:15.017Z,26.73
2023-02-04T04:49:14.983Z,26.75
2023-02-04T04:50:14.952Z,26.72
2023-02-04T04:51:14.950Z,26.74
2023-02-04T04:52:14.924Z,26.73
2023-02-04T04:53:14.940Z,26.73
2023-02-04T04:54:14.911Z,26.71
2023-02-04T04:55:14.870Z,26.73
2023-02-04T04:56:14.890Z,26.72
2023-02-04T04:57:14.862Z,26.71
2023-02-04T04:58:14.874Z,26.72
2023-02-04T04:59:14.868Z,26.71
2023-02-04T05:00:14.818Z,26.72
2023-02-04T05:01:14.906Z,26.71
2023-02-04T05:02:14.800Z,26.72
2023-02-04T05:03:14.784Z,26.74
2023-02-04T05:04:14.809Z,26.72
2023-02-04T05:05:14.761Z,26.74
2023-02-04T05:06:14.744Z,26.72
2023-02-04T05:07:14.738Z,26.71
2023-02-04T05:08:14.714Z,26.72
2023-02-04T05:09:14.701Z,26.70
2023-02-04T05:10:14.662Z,26.71
2023-02-04T05:11:14.690Z,26.72
2023-02-04T05:12:14.634Z,26.71
2023-02-04T05:13:14.597Z,26.71
2023-02-04T05:14:14.570Z,26.69
2023-02-04T05:15:14.565Z,26.68
2023-02-04T05:16:14.664Z,26.69
2023-02-04T05:17:14.532Z,26.68
2023-02-04T05:18:14.524Z,26.70
2023-02-04T05:19:14.504Z,26.70
2023-02-04T05:20:14.485Z,26.70
2023-02-04T05:21:14.508Z,26.71
2023-02-04T05:22:14.454Z,26.69
2023-02-04T05:23:14.412Z,26.70
2023-02-04T05:24:14.409Z,26.72
2023-02-04T05:25:14.386Z,26.71
2023-02-04T05:26:22.165Z,26.74
2023-02-04T05:27:15.332Z,26.74
2023-02-04T05:28:14.360Z,26.73
2023-02-04T05:29:14.317Z,26.75
2023-02-04T05:30:14.304Z,26.74
2023-02-04T05:31:14.481Z,26.73
2023-02-04T05:32:14.324Z,26.74
2023-02-04T05:33:14.282Z,26.74
2023-02-04T05:34:14.283Z,26.74
2023-02-04T05:35:14.257Z,26.73
2023-02-04T05:36:14.235Z,26.72
2023-02-04T05:37:14.224Z,26.76
2023-02-04T05:38:14.210Z,26.75
2023-02-04T05:39:14.216Z,26.76
2023-02-04T05:40:14.208Z,26.74
2023-02-04T05:41:14.165Z,26.75
2023-02-04T05:42:14.179Z,26.75
2023-02-04T05:43:14.185Z,26.76
2023-02-04T05:44:14.140Z,26.77
2023-02-04T05:45:14.140Z,26.79
2023-02-04T05:46:14.222Z,26.78
2023-02-04T05:47:14.111Z,26.76
2023-02-04T05:48:14.084Z,26.76
2023-02-04T05:49:14.098Z,26.75
2023-02-04T05:50:14.082Z,26.76
2023-02-04T05:51:14.077Z,26.77
2023-02-04T05:52:14.070Z,26.77
2023-02-04T05:53:14.098Z,26.79
2023-02-04T05:54:14.025Z,26.78
2023-02-04T05:55:14.032Z,26.78
2023-02-04T05:56:14.017Z,26.79
2023-02-04T05:57:14.011Z,26.79
2023-02-04T05:58:14.001Z,26.79
2023-02-04T05:59:13.972Z,26.78
2023-02-04T06:00:13.984Z,26.81
2023-02-04T06:01:13.951Z,26.83
2023-02-04T06:02:13.969Z,26.82
2023-02-04T06:03:14.017Z,26.82
2023-02-04T06:04:13.964Z,26.82
2023-02-04T06:05:13.946Z,26.82
2023-02-04T06:06:13.983Z,26.83
2023-02-04T06:07:13.938Z,26.83
2023-02-04T06:08:13.885Z,26.84
2023-02-04T06:09:13.891Z,26.86
2023-02-04T06:10:13.888Z,26.87
2023-02-04T06:11:13.893Z,26.85
2023-02-04T06:12:13.869Z,26.86
2023-02-04T06:13:13.855Z,26.84
2023-02-04T06:14:13.858Z,26.85
2023-02-04T06:15:13.828Z,26.85
2023-02-04T06:16:14.956Z,26.85
2023-02-04T06:17:13.843Z,26.84
2023-02-04T06:18:13.784Z,26.87
2023-02-04T06:19:13.784Z,26.87
2023-02-04T06:20:13.772Z,26.87
2023-02-04T06:21:13.757Z,26.86
2023-02-04T06:22:13.785Z,26.85
2023-02-04T06:23:13.755Z,26.86
2023-02-04T06:24:13.734Z,26.88
2023-02-04T06:25:13.712Z,26.87
2023-02-04T06:26:13.723Z,26.87
2023-02-04T06:27:13.738Z,26.86
2023-02-04T06:28:13.743Z,26.87
2023-02-04T06:29:13.705Z,26.85
2023-02-04T06:30:13.701Z,26.87
2023-02-04T06:31:13.774Z,26.88
2023-02-04T06:32:13.686Z,26.88
2023-02-04T06:33:13.840Z,26.90
2023-02-04T06:34:13.677Z,26.88
2023-02-04T06:35:13.687Z,26.89
2023-02-04T06:36:13.677Z,26.90
2023-02-04T06:37:13.688Z,26.89
2023-02-04T06:38:13.692Z,26.91
2023-02-04T06:39:13.664Z,26.93
2023-02-04T06:40:13.661Z,26.91
2023-02-04T06:41:13.672Z,26.93
2023-02-04T06:42:13.845Z,26.94
2023-02-04T06:43:13.631Z,26.94
2023-02-04T06:44:13.649Z,26.93
2023-02-04T06:45:13.626Z,26.93
2023-02-04T06:46:13.693Z,26.91
2023-02-04T06:47:13.615Z,26.95
2023-02-04T06:48:13.628Z,26.93
2023-02-04T06:49:13.632Z,26.94
2023-02-04T06:50:13.617Z,26.97
2023-02-04T06:51:13.602Z,26.95
2023-02-04T06:52:13.606Z,26.95
2023-02-04T06:53:13.576Z,26.96
2023-02-04T06:54:13.545Z,26.94
2023-02-04T06:55:13.547Z,26.96
2023-02-04T06:56:13.565Z,26.93
2023-02-04T06:57:13.538Z,26.95
2023-02-04T06:58:13.567Z,26.95
2023-02-04T06:59:13.539Z,26.94
2023-02-04T07:00:13.540Z,26.94
2023-02-04T07:01:13.555Z,26.96
2023-02-04T07:02:13.540Z,26.96
2023-02-04T07:03:13.555Z,26.95
2023-02-04T07:04:13.527Z,26.95
2023-02-04T07:05:13.517Z,26.94
2023-02-04T07:06:13.522Z,26.96
2023-02-04T07:07:13.519Z,26.95
2023-02-04T07:08:13.522Z,26.96
2023-02-04T07:09:13.538Z,26.96
2023-02-04T07:10:13.520Z,26.96
2023-02-04T07:11:13.495Z,26.97
2023-02-04T07:12:15.925Z,26.97
2023-02-04T07:13:13.502Z,26.99
2023-02-04T07:14:13.492Z,26.98
2023-02-04T07:15:13.448Z,26.94
2023-02-04T07:16:13.507Z,26.95
2023-02-04T07:17:13.454Z,26.96
2023-02-04T07:18:13.425Z,26.94
2023-02-04T07:19:13.436Z,26.93
2023-02-04T07:20:13.418Z,26.98
2023-02-04T07:21:13.401Z,26.96
2023-02-04T07:22:13.395Z,26.96
2023-02-04T07:23:13.426Z,26.96
2023-02-04T07:24:13.432Z,26.96
2023-02-04T07:25:14.330Z,26.96
2023-02-04T07:26:13.392Z,26.93
2023-02-04T07:27:13.379Z,26.93
2023-02-04T07:28:13.429Z,26.93
2023-02-04T07:29:20.666Z,26.95
2023-02-04T07:30:14.400Z,26.94
2023-02-04T07:31:13.512Z,26.93
2023-02-04T07:32:13.373Z,26.93
2023-02-04T07:33:13.376Z,26.90
2023-02-04T07:34:13.391Z,26.91
2023-02-04T07:35:13.402Z,26.93
2023-02-04T07:36:15.072Z,26.89
2023-02-04T07:37:13.346Z,26.90
2023-02-04T07:38:13.358Z,26.87
2023-02-04T07:39:13.359Z,26.90
2023-02-04T07:40:13.350Z,26.87
2023-02-04T07:41:13.330Z,26.86
2023-02-04T07:42:13.337Z,26.88
2023-02-04T07:43:13.333Z,26.88
2023-02-04T07:44:13.316Z,26.87
2023-02-04T07:45:13.308Z,26.89
2023-02-04T07:46:13.332Z,26.88
2023-02-04T07:47:13.288Z,26.85
2023-02-04T07:48:13.286Z,26.85
2023-02-04T07:49:13.306Z,26.87
2023-02-04T07:50:13.245Z,26.88
2023-02-04T07:51:13.275Z,26.89
2023-02-04T07:52:13.224Z,26.87
2023-02-04T07:53:13.229Z,26.86
2023-02-04T07:54:13.242Z,26.87
2023-02-04T07:55:13.204Z,26.87
2023-02-04T07:56:13.205Z,26.88
2023-02-04T07:57:13.217Z,26.85
2023-02-04T07:58:13.186Z,26.87
2023-02-04T07:59:13.193Z,26.88
2023-02-04T08:00:13.173Z,26.88
2023-02-04T08:01:13.202Z,26.87
2023-02-04T08:02:13.178Z,26.85
2023-02-04T08:03:13.149Z,26.86
2023-02-04T08:04:13.158Z,26.85
2023-02-04T08:05:13.136Z,26.87
2023-02-04T08:06:13.106Z,26.85
2023-02-04T08:07:13.111Z,26.88
2023-02-04T08:08:13.120Z,26.88
2023-02-04T08:09:13.136Z,26.85
2023-02-04T08:10:13.095Z,26.87
2023-02-04T08:11:13.093Z,26.87
2023-02-04T08:12:13.099Z,26.85
2023-02-04T08:13:13.081Z,26.85
2023-02-04T08:14:13.108Z,26.87
2023-02-04T08:15:13.068Z,26.85
2023-02-04T08:16:13.145Z,26.85
2023-02-04T08:17:13.066Z,26.87
2023-02-04T08:18:13.068Z,26.85
2023-02-04T08:19:13.081Z,26.84
2023-02-04T08:20:13.075Z,26.87
2023-02-04T08:21:13.049Z,26.88
2023-02-04T08:22:13.078Z,26.86
2023-02-04T08:23:13.018Z,26.89
2023-02-04T08:24:13.017Z,26.88
2023-02-04T08:25:12.995Z,26.88
2023-02-04T08:26:12.989Z,26.89
2023-02-04T08:27:12.977Z,26.88
2023-02-04T08:28:13.017Z,26.84
2023-02-04T08:29:12.953Z,26.83
2023-02-04T08:30:12.988Z,26.82
2023-02-04T08:31:13.024Z,26.86
2023-02-04T08:32:12.944Z,26.85
2023-02-04T08:33:12.928Z,26.87
2023-02-04T08:34:12.925Z,26.89
2023-02-04T08:35:12.893Z,26.89
2023-02-04T08:36:12.884Z,26.90
2023-02-04T08:37:12.869Z,26.89
2023-02-04T08:38:12.864Z,26.87
2023-02-04T08:39:12.855Z,26.87
2023-02-04T08:40:12.862Z,26.85
2023-02-04T08:41:12.825Z,26.86
2023-02-04T08:42:12.812Z,26.86
2023-02-04T08:43:12.818Z,26.87
2023-02-04T08:44:12.820Z,26.88
2023-02-04T08:45:12.806Z,26.89
2023-02-04T08:46:12.824Z,26.89
2023-02-04T08:47:12.769Z,26.90
2023-02-04T08:48:12.760Z,26.88
2023-02-04T08:49:12.765Z,26.86
2023-02-04T08:50:12.798Z,26.84
2023-02-04T08:51:12.743Z,26.85
2023-02-04T08:52:12.757Z,26.82
2023-02-04T08:53:13.375Z,26.80
2023-02-04T08:54:12.723Z,26.75
2023-02-04T08:55:12.721Z,26.73
2023-02-04T08:56:12.729Z,26.69
2023-02-04T08:57:12.717Z,26.72
2023-02-04T08:58:12.694Z,26.73
2023-02-04T08:59:12.728Z,26.75
2023-02-04T09:00:12.726Z,26.74
2023-02-04T09:01:12.805Z,26.72
2023-02-04T09:02:12.803Z,26.73
2023-02-04T09:03:12.677Z,26.76
2023-02-04T09:04:12.676Z,26.79
2023-02-04T09:05:12.684Z,26.79
2023-02-04T09:06:12.692Z,26.79
2023-02-04T09:07:12.659Z,26.78
2023-02-04T09:08:12.659Z,26.77
2023-02-04T09:09:12.609Z,26.78
2023-02-04T09:10:12.629Z,26.78
2023-02-04T09:11:12.636Z,26.79
2023-02-04T09:12:12.604Z,26.78
2023-02-04T09:13:12.588Z,26.76
2023-02-04T09:14:12.601Z,26.72
2023-02-04T09:15:12.629Z,26.71
2023-02-04T09:16:12.644Z,26.70
2023-02-04T09:17:12.566Z,26.72
2023-02-04T09:18:12.563Z,26.74
2023-02-04T09:19:12.569Z,26.75
2023-02-04T09:20:12.578Z,26.78
2023-02-04T09:21:12.583Z,26.77
2023-02-04T09:22:12.550Z,26.75
2023-02-04T09:23:12.571Z,26.79
2023-02-04T09:24:12.525Z,26.78
2023-02-04T09:25:12.543Z,26.78
2023-02-04T09:26:12.472Z,26.77
2023-02-04T09:27:12.496Z,26.74
2023-02-04T09:28:12.560Z,26.70
2023-02-04T09:29:12.486Z,26.65
2023-02-04T09:30:12.499Z,26.66
2023-02-04T09:31:12.653Z,26.62
2023-02-04T09:32:12.488Z,26.65
2023-02-04T09:33:12.437Z,26.68
2023-02-04T09:34:12.420Z,26.64
2023-02-04T09:35:12.423Z,26.67
2023-02-04T09:36:12.440Z,26.72
2023-02-04T09:37:12.394Z,26.68
2023-02-04T09:38:12.348Z,26.67
2023-02-04T09:39:12.362Z,26.70
2023-02-04T09:40:12.318Z,26.67
2023-02-04T09:41:12.336Z,26.67
2023-02-04T09:42:12.305Z,26.74
2023-02-04T09:43:12.287Z,26.73
2023-02-04T09:44:12.286Z,26.76
2023-02-04T09:45:12.228Z,26.79
2023-02-04T09:46:12.282Z,26.76
2023-02-04T09:47:12.201Z,26.73
2023-02-04T09:48:12.227Z,26.75
2023-02-04T09:49:12.226Z,26.77
2023-02-04T09:50:12.167Z,26.79
2023-02-04T09:51:12.174Z,26.81
2023-02-04T09:52:12.148Z,26.79
2023-02-04T09:53:12.132Z,26.83
2023-02-04T09:54:12.097Z,26.83
2023-02-04T09:55:12.081Z,26.84
2023-02-04T09:56:12.095Z,26.86
2023-02-04T09:57:12.059Z,26.86
2023-02-04T09:58:12.049Z,26.84
2023-02-04T09:59:12.002Z,26.86
2023-02-04T10:00:12.008Z,26.86
2023-02-04T10:01:12.114Z,26.80
2023-02-04T10:02:11.973Z,26.83
2023-02-04T10:03:11.953Z,26.76
2023-02-04T10:04:11.935Z,26.70
2023-02-04T10:05:11.930Z,26.67
2023-02-04T10:06:11.952Z,26.68
2023-02-04T10:07:11.902Z,26.69
2023-02-04T10:08:11.866Z,26.69
2023-02-04T10:09:11.864Z,26.72
2023-02-04T10:10:11.864Z,26.75
2023-02-04T10:11:11.868Z,26.68
2023-02-04T10:12:11.843Z,26.63
2023-02-04T10:13:11.826Z,26.68
2023-02-04T10:14:11.887Z,26.68
2023-02-04T10:15:11.776Z,26.69
2023-02-04T10:16:11.808Z,26.75
2023-02-04T10:17:11.754Z,26.71
2023-02-04T10:18:11.694Z,26.75
2023-02-04T10:19:11.708Z,26.71
2023-02-04T10:20:11.667Z,26.68
2023-02-04T10:21:11.713Z,26.59
2023-02-04T10:22:11.631Z,26.58
2023-02-04T10:23:12.780Z,26.57
2023-02-04T10:24:11.607Z,26.61
2023-02-04T10:25:11.597Z,26.64
2023-02-04T10:26:11.598Z,26.63
2023-02-04T10:27:11.564Z,26.62
2023-02-04T10:28:11.601Z,26.60
2023-02-04T10:29:11.516Z,26.60
2023-02-04T10:30:11.474Z,26.63
2023-02-04T10:31:11.565Z,26.66
2023-02-04T10:32:11.439Z,26.66
2023-02-04T10:33:11.405Z,26.72
2023-02-04T10:34:11.401Z,26.72
2023-02-04T10:35:11.378Z,26.72
2023-02-04T10:36:11.876Z,26.73
2023-02-04T10:37:11.382Z,26.76
2023-02-04T10:38:11.292Z,26.76
2023-02-04T10:39:11.286Z,26.76
2023-02-04T10:40:11.254Z,26.78
2023-02-04T10:41:11.233Z,26.79
2023-02-04T10:42:11.245Z,26.79
2023-02-04T10:43:11.211Z,26.79
2023-02-04T10:44:11.264Z,26.80
2023-02-04T10:45:11.319Z,26.79
2023-02-04T10:46:11.211Z,26.82
2023-02-04T10:47:11.433Z,26.83
2023-02-04T10:48:11.103Z,26.83
2023-02-04T10:49:11.051Z,26.83
2023-02-04T10:50:11.912Z,26.83
2023-02-04T10:51:10.997Z,26.83
2023-02-04T10:52:10.968Z,26.84
2023-02-04T10:53:10.918Z,26.84
2023-02-04T10:54:10.906Z,26.84
2023-02-04T10:55:10.877Z,26.85
2023-02-04T10:56:10.848Z,26.85
2023-02-04T10:57:10.832Z,26.86
2023-02-04T10:58:10.797Z,26.87
2023-02-04T10:59:10.788Z,26.86
2023-02-04T11:00:10.748Z,26.86
2023-02-04T11:01:10.779Z,26.85
2023-02-04T11:02:10.771Z,26.83
2023-02-04T11:03:10.808Z,26.86
2023-02-04T11:04:10.673Z,26.84
2023-02-04T11:05:10.690Z,26.83
2023-02-04T11:06:10.652Z,26.85
2023-02-04T11:07:10.663Z,26.82
2023-02-04T11:08:10.589Z,26.81
2023-02-04T11:09:10.574Z,26.79
2023-02-04T11:10:10.556Z,26.75
2023-02-04T11:11:10.571Z,26.76
2023-02-04T11:12:10.512Z,26.76
2023-02-04T11:13:10.478Z,26.74
2023-02-04T11:14:10.479Z,26.71
2023-02-04T11:15:10.439Z,26.73
2023-02-04T11:16:10.464Z,26.71
2023-02-04T11:17:10.407Z,26.72
2023-02-04T11:18:10.364Z,26.77
2023-02-04T11:19:10.373Z,26.77
2023-02-04T11:20:10.315Z,26.77
2023-02-04T11:21:10.326Z,26.68
2023-02-04T11:22:10.303Z,26.58
2023-02-04T11:23:10.237Z,26.62
2023-02-04T11:24:10.236Z,26.62
2023-02-04T11:25:10.204Z,26.63
2023-02-04T11:26:10.216Z,26.64
2023-02-04T11:27:10.213Z,26.71
2023-02-04T11:28:10.182Z,26.70
2023-02-04T11:29:10.119Z,26.72
2023-02-04T11:30:10.132Z,26.72
2023-02-04T11:31:10.200Z,26.75
2023-02-04T11:32:10.081Z,26.73
2023-02-04T11:33:10.040Z,26.73
2023-02-04T11:34:10.010Z,26.65
2023-02-04T11:35:09.970Z,26.64
2023-02-04T11:36:09.954Z,26.62
2023-02-04T11:37:09.908Z,26.65
2023-02-04T11:38:09.912Z,26.60
2023-02-04T11:39:09.877Z,26.67
2023-02-04T11:40:09.832Z,26.68
2023-02-04T11:41:09.827Z,26.64
2023-02-04T11:42:09.783Z,26.61
2023-02-04T11:43:09.806Z,26.65
2023-02-04T11:44:09.747Z,26.61
2023-02-04T11:45:09.715Z,26.63
2023-02-04T11:46:09.735Z,26.65
2023-02-04T11:47:09.697Z,26.64
2023-02-04T11:48:09.796Z,26.64
2023-02-04T11:49:09.621Z,26.57
2023-02-04T11:50:09.578Z,26.64
2023-02-04T11:51:09.543Z,26.65
2023-02-04T11:52:09.534Z,26.55
2023-02-04T11:53:09.499Z,26.46
2023-02-04T11:54:09.450Z,26.38
2023-02-04T11:55:09.455Z,26.37
2023-02-04T11:56:09.387Z,26.34
2023-02-04T11:57:09.391Z,26.30
2023-02-04T11:58:09.375Z,26.31
2023-02-04T11:59:09.342Z,26.32
2023-02-04T12:00:09.293Z,26.36
2023-02-04T12:01:09.284Z,26.40
2023-02-04T12:02:09.251Z,26.38
2023-02-04T12:03:09.256Z,26.38
2023-02-04T12:04:09.254Z,26.30
2023-02-04T12:05:09.190Z,26.25
2023-02-04T12:06:09.171Z,26.30
2023-02-04T12:07:09.128Z,26.35
2023-02-04T12:08:10.969Z,26.34
2023-02-04T12:09:09.201Z,26.33
2023-02-04T12:10:09.190Z,26.29
2023-02-04T12:11:09.149Z,26.30
2023-02-04T12:12:09.108Z,26.34
2023-02-04T12:13:09.111Z,26.33
2023-02-04T12:14:09.062Z,26.33
2023-02-04T12:15:09.022Z,26.32
2023-02-04T12:16:09.142Z,26.34
2023-02-04T12:17:09.075Z,26.37
2023-02-04T12:18:09.122Z,26.40
2023-02-04T12:19:09.150Z,26.42
2023-02-04T12:20:09.169Z,26.42
2023-02-04T12:21:09.200Z,26.32
2023-02-04T12:22:09.269Z,26.29
2023-02-04T12:23:09.276Z,26.34
2023-02-04T12:24:09.295Z,26.39
2023-02-04T12:25:09.339Z,26.40
2023-02-04T12:26:09.345Z,26.36
2023-02-04T12:27:09.406Z,26.37
2023-02-04T12:28:09.413Z,26.41
2023-02-04T12:29:09.441Z,26.44
2023-02-04T12:30:09.478Z,26.43
2023-02-04T12:31:09.754Z,26.34
2023-02-04T12:32:09.590Z,26.38
2023-02-04T12:33:09.604Z,26.41
2023-02-04T12:34:09.590Z,26.44
2023-02-04T12:35:09.663Z,26.47
2023-02-04T12:36:09.730Z,26.49
2023-02-04T12:37:09.693Z,26.50
2023-02-04T12:38:09.755Z,26.51
2023-02-04T12:39:09.784Z,26.54
2023-02-04T12:40:09.805Z,26.54
2023-02-04T12:41:09.871Z,26.58
2023-02-04T12:42:09.876Z,26.53
2023-02-04T12:43:09.910Z,26.50
2023-02-04T12:44:09.977Z,26.51
2023-02-04T12:45:09.981Z,26.53
2023-02-04T12:46:10.073Z,26.54
2023-02-04T12:47:10.013Z,26.53
2023-02-04T12:48:10.129Z,26.55
2023-02-04T12:49:10.126Z,26.59
2023-02-04T12:50:10.125Z,26.62
2023-02-04T12:51:10.168Z,26.63
2023-02-04T12:52:10.177Z,26.59
2023-02-04T12:53:10.237Z,26.56
2023-02-04T12:54:10.282Z,26.51
2023-02-04T12:55:10.310Z,26.51
2023-02-04T12:56:10.314Z,26.56
2023-02-04T12:57:10.371Z,26.58
2023-02-04T12:58:10.386Z,26.60
2023-02-04T12:59:10.453Z,26.61
2023-02-04T13:00:10.443Z,26.60
2023-02-04T13:01:10.562Z,26.56
2023-02-04T13:02:10.606Z,26.52
2023-02-04T13:03:10.560Z,26.56
2023-02-04T13:04:10.597Z,26.57
2023-02-04T13:05:10.627Z,26.57
2023-02-04T13:06:10.681Z,26.60
2023-02-04T13:07:10.740Z,26.58
2023-02-04T13:08:10.723Z,26.57